sensor_id;sensor_type;location;lat;lon;timestamp;temperature;humidity
17495;DHT22;8864;51.970;4.614;2024-03-06T00:01:53;17.00;81.60
17495;DHT22;8864;51.970;4.614;2024-03-06T00:04:21;17.00;81.60
17495;DHT22;8864;51.970;4.614;2024-03-06T00:06:48;17.00;81.60
17495;DHT22;8864;51.970;4.614;2024-03-06T00:09:17;17.00;81.60
17495;DHT22;8864;51.970;4.614;2024-03-06T00:11:45;17.00;81.60
17495;DHT22;8864;51.970;4.614;2024-03-06T00:14:12;17.10;81.60
17495;DHT22;8864;51.970;4.614;2024-03-06T00:16:39;17.00;81.60
17495;DHT22;8864;51.970;4.614;2024-03-06T00:19:07;17.00;81.60
17495;DHT22;8864;51.970;4.614;2024-03-06T00:21:35;17.00;81.60
17495;DHT22;8864;51.970;4.614;2024-03-06T00:24:02;17.00;81.60
17495;DHT22;8864;51.970;4.614;2024-03-06T00:26:30;17.00;81.50
17495;DHT22;8864;51.970;4.614;2024-03-06T00:28:57;17.00;81.60
17495;DHT22;8864;51.970;4.614;2024-03-06T00:31:24;17.00;81.60
17495;DHT22;8864;51.970;4.614;2024-03-06T00:33:51;17.00;81.50
17495;DHT22;8864;51.970;4.614;2024-03-06T00:36:20;17.00;81.60
17495;DHT22;8864;51.970;4.614;2024-03-06T00:38:48;17.00;81.60
17495;DHT22;8864;51.970;4.614;2024-03-06T00:41:15;17.00;81.60
17495;DHT22;8864;51.970;4.614;2024-03-06T00:43:42;17.00;81.60
17495;DHT22;8864;51.970;4.614;2024-03-06T00:46:09;17.00;81.60
17495;DHT22;8864;51.970;4.614;2024-03-06T00:48:36;17.00;81.60
17495;DHT22;8864;51.970;4.614;2024-03-06T00:51:04;17.00;81.50
17495;DHT22;8864;51.970;4.614;2024-03-06T00:53:34;17.00;81.50
17495;DHT22;8864;51.970;4.614;2024-03-06T00:56:01;17.00;81.50
17495;DHT22;8864;51.970;4.614;2024-03-06T00:58:28;17.00;81.60
17495;DHT22;8864;51.970;4.614;2024-03-06T01:00:56;17.00;81.60
17495;DHT22;8864;51.970;4.614;2024-03-06T01:03:23;17.00;81.70
17495;DHT22;8864;51.970;4.614;2024-03-06T01:05:50;17.00;81.70
17495;DHT22;8864;51.970;4.614;2024-03-06T01:08:17;17.00;81.70
17495;DHT22;8864;51.970;4.614;2024-03-06T01:10:46;17.00;81.70
17495;DHT22;8864;51.970;4.614;2024-03-06T01:13:13;17.00;81.70
17495;DHT22;8864;51.970;4.614;2024-03-06T01:15:40;17.00;81.70
17495;DHT22;8864;51.970;4.614;2024-03-06T01:18:07;17.00;81.70
17495;DHT22;8864;51.970;4.614;2024-03-06T01:20:35;17.00;81.70
17495;DHT22;8864;51.970;4.614;2024-03-06T01:23:04;17.00;81.70
17495;DHT22;8864;51.970;4.614;2024-03-06T01:25:30;17.00;81.70
17495;DHT22;8864;51.970;4.614;2024-03-06T01:27:59;17.00;81.70
17495;DHT22;8864;51.970;4.614;2024-03-06T01:30:26;17.00;81.70
17495;DHT22;8864;51.970;4.614;2024-03-06T01:32:53;17.00;81.60
17495;DHT22;8864;51.970;4.614;2024-03-06T01:35:20;17.00;81.60
17495;DHT22;8864;51.970;4.614;2024-03-06T01:37:49;17.00;81.60
17495;DHT22;8864;51.970;4.614;2024-03-06T01:40:16;17.00;81.60
17495;DHT22;8864;51.970;4.614;2024-03-06T01:42:43;17.00;81.60
17495;DHT22;8864;51.970;4.614;2024-03-06T01:45:11;17.00;81.60
17495;DHT22;8864;51.970;4.614;2024-03-06T01:47:38;17.00;81.60
17495;DHT22;8864;51.970;4.614;2024-03-06T01:50:06;17.00;81.60
17495;DHT22;8864;51.970;4.614;2024-03-06T01:52:35;17.00;81.60
17495;DHT22;8864;51.970;4.614;2024-03-06T01:55:06;17.00;81.50
17495;DHT22;8864;51.970;4.614;2024-03-06T01:57:34;17.00;81.60
17495;DHT22;8864;51.970;4.614;2024-03-06T02:00:02;17.00;81.50
17495;DHT22;8864;51.970;4.614;2024-03-06T02:02:31;17.00;81.50
17495;DHT22;8864;51.970;4.614;2024-03-06T02:04:58;17.00;81.60
17495;DHT22;8864;51.970;4.614;2024-03-06T02:07:25;17.00;81.50
17495;DHT22;8864;51.970;4.614;2024-03-06T02:09:54;17.00;81.50
17495;DHT22;8864;51.970;4.614;2024-03-06T02:12:20;16.90;81.40
17495;DHT22;8864;51.970;4.614;2024-03-06T02:14:48;16.90;81.40
17495;DHT22;8864;51.970;4.614;2024-03-06T02:17:15;16.90;81.40
17495;DHT22;8864;51.970;4.614;2024-03-06T02:19:44;17.00;81.40
17495;DHT22;8864;51.970;4.614;2024-03-06T02:22:12;16.90;81.40
17495;DHT22;8864;51.970;4.614;2024-03-06T02:24:47;16.90;81.40
17495;DHT22;8864;51.970;4.614;2024-03-06T02:27:15;16.90;81.30
17495;DHT22;8864;51.970;4.614;2024-03-06T02:29:42;16.90;81.30
17495;DHT22;8864;51.970;4.614;2024-03-06T02:32:11;16.90;81.40
17495;DHT22;8864;51.970;4.614;2024-03-06T02:34:39;16.90;81.40
17495;DHT22;8864;51.970;4.614;2024-03-06T02:37:07;16.90;81.30
17495;DHT22;8864;51.970;4.614;2024-03-06T02:39:35;16.90;81.30
17495;DHT22;8864;51.970;4.614;2024-03-06T02:42:02;16.90;81.30
17495;DHT22;8864;51.970;4.614;2024-03-06T02:44:30;16.90;81.30
17495;DHT22;8864;51.970;4.614;2024-03-06T02:46:56;16.90;81.30
17495;DHT22;8864;51.970;4.614;2024-03-06T02:49:23;16.90;81.30
17495;DHT22;8864;51.970;4.614;2024-03-06T02:51:50;16.90;81.30
17495;DHT22;8864;51.970;4.614;2024-03-06T02:54:17;16.90;81.30
17495;DHT22;8864;51.970;4.614;2024-03-06T02:56:46;16.90;81.30
17495;DHT22;8864;51.970;4.614;2024-03-06T02:59:13;16.90;81.30
17495;DHT22;8864;51.970;4.614;2024-03-06T03:01:40;16.90;81.30
17495;DHT22;8864;51.970;4.614;2024-03-06T03:04:07;16.90;81.30
17495;DHT22;8864;51.970;4.614;2024-03-06T03:06:34;16.90;81.30
17495;DHT22;8864;51.970;4.614;2024-03-06T03:09:01;16.90;81.30
17495;DHT22;8864;51.970;4.614;2024-03-06T03:11:29;16.90;81.30
17495;DHT22;8864;51.970;4.614;2024-03-06T03:13:58;16.90;81.30
17495;DHT22;8864;51.970;4.614;2024-03-06T03:16:25;16.90;81.30
17495;DHT22;8864;51.970;4.614;2024-03-06T03:18:52;16.90;81.30
17495;DHT22;8864;51.970;4.614;2024-03-06T03:21:19;16.90;81.30
17495;DHT22;8864;51.970;4.614;2024-03-06T03:23:47;16.90;81.30
17495;DHT22;8864;51.970;4.614;2024-03-06T03:26:14;16.90;81.20
17495;DHT22;8864;51.970;4.614;2024-03-06T03:28:41;16.90;81.20
17495;DHT22;8864;51.970;4.614;2024-03-06T03:31:10;16.90;81.10
17495;DHT22;8864;51.970;4.614;2024-03-06T03:33:39;16.90;81.10
17495;DHT22;8864;51.970;4.614;2024-03-06T03:36:07;16.90;81.20
17495;DHT22;8864;51.970;4.614;2024-03-06T03:38:34;16.90;81.20
17495;DHT22;8864;51.970;4.614;2024-03-06T03:41:07;16.90;81.10
17495;DHT22;8864;51.970;4.614;2024-03-06T03:43:34;16.90;81.10
17495;DHT22;8864;51.970;4.614;2024-03-06T03:46:01;16.80;81.00
17495;DHT22;8864;51.970;4.614;2024-03-06T03:48:31;16.90;81.10
17495;DHT22;8864;51.970;4.614;2024-03-06T03:51:01;16.80;81.00
17495;DHT22;8864;51.970;4.614;2024-03-06T03:53:29;16.80;81.00
17495;DHT22;8864;51.970;4.614;2024-03-06T03:55:57;16.80;81.00
17495;DHT22;8864;51.970;4.614;2024-03-06T03:58:23;16.80;80.90
17495;DHT22;8864;51.970;4.614;2024-03-06T04:00:50;16.80;80.90
17495;DHT22;8864;51.970;4.614;2024-03-06T04:03:18;16.80;80.80
17495;DHT22;8864;51.970;4.614;2024-03-06T04:05:48;16.80;80.80
17495;DHT22;8864;51.970;4.614;2024-03-06T04:08:15;16.80;80.80
17495;DHT22;8864;51.970;4.614;2024-03-06T04:10:42;16.80;80.80
17495;DHT22;8864;51.970;4.614;2024-03-06T04:13:10;16.80;80.90
17495;DHT22;8864;51.970;4.614;2024-03-06T04:15:37;16.80;80.80
17495;DHT22;8864;51.970;4.614;2024-03-06T04:18:05;16.80;80.80
17495;DHT22;8864;51.970;4.614;2024-03-06T04:20:33;16.80;80.80
17495;DHT22;8864;51.970;4.614;2024-03-06T04:23:02;16.80;80.80
17495;DHT22;8864;51.970;4.614;2024-03-06T04:25:28;16.80;80.80
17495;DHT22;8864;51.970;4.614;2024-03-06T04:27:56;16.80;80.80
17495;DHT22;8864;51.970;4.614;2024-03-06T04:30:23;16.80;80.70
17495;DHT22;8864;51.970;4.614;2024-03-06T04:32:50;16.80;80.70
17495;DHT22;8864;51.970;4.614;2024-03-06T04:35:17;16.80;80.70
17495;DHT22;8864;51.970;4.614;2024-03-06T04:37:44;16.80;80.60
17495;DHT22;8864;51.970;4.614;2024-03-06T04:40:12;16.80;80.70
17495;DHT22;8864;51.970;4.614;2024-03-06T04:42:45;16.80;80.60
17495;DHT22;8864;51.970;4.614;2024-03-06T04:45:14;16.80;80.60
17495;DHT22;8864;51.970;4.614;2024-03-06T04:47:41;16.80;80.80
17495;DHT22;8864;51.970;4.614;2024-03-06T04:50:09;16.80;80.80
17495;DHT22;8864;51.970;4.614;2024-03-06T04:52:36;16.80;80.60
17495;DHT22;8864;51.970;4.614;2024-03-06T04:55:04;16.80;80.60
17495;DHT22;8864;51.970;4.614;2024-03-06T04:57:32;16.70;80.60
17495;DHT22;8864;51.970;4.614;2024-03-06T05:00:00;16.70;80.50
17495;DHT22;8864;51.970;4.614;2024-03-06T05:02:30;16.70;80.50
17495;DHT22;8864;51.970;4.614;2024-03-06T05:05:00;16.70;80.40
17495;DHT22;8864;51.970;4.614;2024-03-06T05:07:28;16.70;80.40
17495;DHT22;8864;51.970;4.614;2024-03-06T05:09:55;16.70;80.30
17495;DHT22;8864;51.970;4.614;2024-03-06T05:12:22;16.70;81.10
17495;DHT22;8864;51.970;4.614;2024-03-06T05:14:51;16.70;80.30
17495;DHT22;8864;51.970;4.614;2024-03-06T05:17:18;16.70;80.30
17495;DHT22;8864;51.970;4.614;2024-03-06T05:19:45;16.70;80.30
17495;DHT22;8864;51.970;4.614;2024-03-06T05:22:13;16.70;80.20
17495;DHT22;8864;51.970;4.614;2024-03-06T05:24:41;16.70;80.20
17495;DHT22;8864;51.970;4.614;2024-03-06T05:27:08;16.70;80.20
17495;DHT22;8864;51.970;4.614;2024-03-06T05:29:38;16.70;80.20
17495;DHT22;8864;51.970;4.614;2024-03-06T05:32:07;16.70;80.20
17495;DHT22;8864;51.970;4.614;2024-03-06T05:34:34;16.70;80.20
17495;DHT22;8864;51.970;4.614;2024-03-06T05:37:02;16.70;80.10
17495;DHT22;8864;51.970;4.614;2024-03-06T05:39:30;16.70;80.10
17495;DHT22;8864;51.970;4.614;2024-03-06T05:42:00;16.70;80.00
17495;DHT22;8864;51.970;4.614;2024-03-06T05:44:28;16.70;80.00
17495;DHT22;8864;51.970;4.614;2024-03-06T05:46:55;16.70;80.00
17495;DHT22;8864;51.970;4.614;2024-03-06T05:49:23;16.70;80.00
17495;DHT22;8864;51.970;4.614;2024-03-06T05:51:50;16.70;80.00
17495;DHT22;8864;51.970;4.614;2024-03-06T05:54:18;16.70;80.00
17495;DHT22;8864;51.970;4.614;2024-03-06T05:56:45;16.70;80.00
17495;DHT22;8864;51.970;4.614;2024-03-06T05:59:13;16.70;80.00
17495;DHT22;8864;51.970;4.614;2024-03-06T06:01:40;16.60;80.00
17495;DHT22;8864;51.970;4.614;2024-03-06T06:04:08;16.60;80.00
17495;DHT22;8864;51.970;4.614;2024-03-06T06:06:37;16.70;80.00
17495;DHT22;8864;51.970;4.614;2024-03-06T06:09:04;16.70;80.00
17495;DHT22;8864;51.970;4.614;2024-03-06T06:11:31;16.70;80.00
17495;DHT22;8864;51.970;4.614;2024-03-06T06:13:59;16.70;80.00
17495;DHT22;8864;51.970;4.614;2024-03-06T06:16:26;16.70;80.00
17495;DHT22;8864;51.970;4.614;2024-03-06T06:18:53;16.70;79.90
17495;DHT22;8864;51.970;4.614;2024-03-06T06:21:20;16.70;79.90
17495;DHT22;8864;51.970;4.614;2024-03-06T06:23:48;16.70;79.90
17495;DHT22;8864;51.970;4.614;2024-03-06T06:26:15;16.70;79.90
17495;DHT22;8864;51.970;4.614;2024-03-06T06:28:43;16.70;79.90
17495;DHT22;8864;51.970;4.614;2024-03-06T06:31:11;16.60;79.70
17495;DHT22;8864;51.970;4.614;2024-03-06T06:33:38;16.70;79.80
17495;DHT22;8864;51.970;4.614;2024-03-06T06:36:06;16.70;79.80
17495;DHT22;8864;51.970;4.614;2024-03-06T07:35:12;16.60;78.50
17495;DHT22;8864;51.970;4.614;2024-03-06T07:37:38;16.60;78.60
17495;DHT22;8864;51.970;4.614;2024-03-06T07:40:07;16.60;78.70
17495;DHT22;8864;51.970;4.614;2024-03-06T07:42:35;16.60;78.80
17495;DHT22;8864;51.970;4.614;2024-03-06T07:45:04;16.70;79.10
17495;DHT22;8864;51.970;4.614;2024-03-06T07:47:31;16.70;79.00
17495;DHT22;8864;51.970;4.614;2024-03-06T07:49:58;16.70;79.00
17495;DHT22;8864;51.970;4.614;2024-03-06T07:52:26;16.70;79.40
17495;DHT22;8864;51.970;4.614;2024-03-06T07:54:53;16.80;79.30
17495;DHT22;8864;51.970;4.614;2024-03-06T07:57:20;16.80;79.20
17495;DHT22;8864;51.970;4.614;2024-03-06T07:59:47;16.80;79.10
17495;DHT22;8864;51.970;4.614;2024-03-06T08:02:15;16.80;79.10
17495;DHT22;8864;51.970;4.614;2024-03-06T08:04:44;16.80;79.10
17495;DHT22;8864;51.970;4.614;2024-03-06T08:07:13;16.80;79.10
17495;DHT22;8864;51.970;4.614;2024-03-06T08:09:41;16.80;79.00
17495;DHT22;8864;51.970;4.614;2024-03-06T08:12:09;16.80;78.80
17495;DHT22;8864;51.970;4.614;2024-03-06T08:14:36;16.80;78.60
17495;DHT22;8864;51.970;4.614;2024-03-06T08:17:03;16.80;78.60
17495;DHT22;8864;51.970;4.614;2024-03-06T08:19:30;16.80;78.50
17495;DHT22;8864;51.970;4.614;2024-03-06T08:21:57;16.80;78.40
17495;DHT22;8864;51.970;4.614;2024-03-06T08:24:24;16.80;78.30
17495;DHT22;8864;51.970;4.614;2024-03-06T08:26:52;16.80;78.20
17495;DHT22;8864;51.970;4.614;2024-03-06T08:29:19;16.90;78.20
17495;DHT22;8864;51.970;4.614;2024-03-06T08:31:46;16.90;78.20
17495;DHT22;8864;51.970;4.614;2024-03-06T08:34:13;16.90;78.20
17495;DHT22;8864;51.970;4.614;2024-03-06T08:36:42;16.90;78.10
17495;DHT22;8864;51.970;4.614;2024-03-06T08:39:09;16.90;78.00
17495;DHT22;8864;51.970;4.614;2024-03-06T08:41:39;16.90;78.00
17495;DHT22;8864;51.970;4.614;2024-03-06T08:44:09;16.90;78.00
17495;DHT22;8864;51.970;4.614;2024-03-06T08:46:36;16.90;78.80
17495;DHT22;8864;51.970;4.614;2024-03-06T08:49:03;16.90;77.90
17495;DHT22;8864;51.970;4.614;2024-03-06T08:51:30;16.90;77.80
17495;DHT22;8864;51.970;4.614;2024-03-06T08:53:57;16.90;77.80
17495;DHT22;8864;51.970;4.614;2024-03-06T08:56:24;16.90;77.70
17495;DHT22;8864;51.970;4.614;2024-03-06T08:58:51;16.90;77.70
17495;DHT22;8864;51.970;4.614;2024-03-06T09:01:20;16.90;77.70
17495;DHT22;8864;51.970;4.614;2024-03-06T09:03:46;17.00;78.00
17495;DHT22;8864;51.970;4.614;2024-03-06T09:06:13;16.90;78.00
17495;DHT22;8864;51.970;4.614;2024-03-06T09:08:40;17.00;78.20
17495;DHT22;8864;51.970;4.614;2024-03-06T09:11:07;17.00;78.20
17495;DHT22;8864;51.970;4.614;2024-03-06T09:13:34;17.00;78.30
17495;DHT22;8864;51.970;4.614;2024-03-06T09:16:02;17.00;78.40
17495;DHT22;8864;51.970;4.614;2024-03-06T09:18:30;17.00;78.80
17495;DHT22;8864;51.970;4.614;2024-03-06T09:20:57;17.00;80.20
17495;DHT22;8864;51.970;4.614;2024-03-06T09:23:25;17.10;81.00
17495;DHT22;8864;51.970;4.614;2024-03-06T09:25:55;17.10;81.40
17495;DHT22;8864;51.970;4.614;2024-03-06T09:28:22;17.20;82.00
17495;DHT22;8864;51.970;4.614;2024-03-06T09:30:49;17.20;82.00
17495;DHT22;8864;51.970;4.614;2024-03-06T09:33:16;17.20;82.40
17495;DHT22;8864;51.970;4.614;2024-03-06T09:35:45;17.20;82.60
17495;DHT22;8864;51.970;4.614;2024-03-06T09:38:12;17.30;82.70
17495;DHT22;8864;51.970;4.614;2024-03-06T09:40:40;17.30;83.00
17495;DHT22;8864;51.970;4.614;2024-03-06T09:43:07;17.30;83.60
17495;DHT22;8864;51.970;4.614;2024-03-06T09:45:35;17.30;83.80
17495;DHT22;8864;51.970;4.614;2024-03-06T09:48:03;17.40;84.00
17495;DHT22;8864;51.970;4.614;2024-03-06T09:50:34;17.30;83.60
17495;DHT22;8864;51.970;4.614;2024-03-06T09:53:08;17.40;83.10
17495;DHT22;8864;51.970;4.614;2024-03-06T09:55:36;17.40;82.90
17495;DHT22;8864;51.970;4.614;2024-03-06T09:58:04;17.40;82.80
17495;DHT22;8864;51.970;4.614;2024-03-06T10:00:32;17.40;82.50
17495;DHT22;8864;51.970;4.614;2024-03-06T10:03:00;17.40;82.40
17495;DHT22;8864;51.970;4.614;2024-03-06T10:05:30;17.40;83.10
17495;DHT22;8864;51.970;4.614;2024-03-06T10:08:01;17.40;83.20
17495;DHT22;8864;51.970;4.614;2024-03-06T10:10:31;17.40;83.20
17495;DHT22;8864;51.970;4.614;2024-03-06T10:12:58;17.50;83.30
17495;DHT22;8864;51.970;4.614;2024-03-06T10:15:25;17.40;83.30
17495;DHT22;8864;51.970;4.614;2024-03-06T10:18:10;17.50;83.40
17495;DHT22;8864;51.970;4.614;2024-03-06T10:20:37;17.60;83.10
17495;DHT22;8864;51.970;4.614;2024-03-06T10:23:04;17.60;83.00
17495;DHT22;8864;51.970;4.614;2024-03-06T10:25:32;17.70;82.50
17495;DHT22;8864;51.970;4.614;2024-03-06T10:28:06;17.70;82.20
17495;DHT22;8864;51.970;4.614;2024-03-06T10:30:34;17.60;81.60
17495;DHT22;8864;51.970;4.614;2024-03-06T10:33:02;17.60;82.10
17495;DHT22;8864;51.970;4.614;2024-03-06T10:35:30;17.60;81.30
17495;DHT22;8864;51.970;4.614;2024-03-06T10:37:57;17.70;82.20
17495;DHT22;8864;51.970;4.614;2024-03-06T10:40:27;17.60;81.20
17495;DHT22;8864;51.970;4.614;2024-03-06T10:42:56;17.60;81.20
17495;DHT22;8864;51.970;4.614;2024-03-06T10:45:32;17.60;80.90
17495;DHT22;8864;51.970;4.614;2024-03-06T10:48:02;17.60;80.60
17495;DHT22;8864;51.970;4.614;2024-03-06T10:50:31;17.60;80.60
17495;DHT22;8864;51.970;4.614;2024-03-06T10:53:00;17.60;81.30
17495;DHT22;8864;51.970;4.614;2024-03-06T10:55:30;17.70;81.20
17495;DHT22;8864;51.970;4.614;2024-03-06T10:58:02;17.70;81.30
17495;DHT22;8864;51.970;4.614;2024-03-06T11:00:35;17.70;81.50
17495;DHT22;8864;51.970;4.614;2024-03-06T11:03:05;17.70;81.40
17495;DHT22;8864;51.970;4.614;2024-03-06T11:05:34;17.80;81.60
17495;DHT22;8864;51.970;4.614;2024-03-06T11:08:01;17.80;81.60
17495;DHT22;8864;51.970;4.614;2024-03-06T11:10:32;17.80;81.40
17495;DHT22;8864;51.970;4.614;2024-03-06T11:13:02;17.80;81.40
17495;DHT22;8864;51.970;4.614;2024-03-06T11:15:30;17.80;81.40
17495;DHT22;8864;51.970;4.614;2024-03-06T11:17:57;17.70;81.30
17495;DHT22;8864;51.970;4.614;2024-03-06T11:20:25;17.70;81.30
17495;DHT22;8864;51.970;4.614;2024-03-06T11:23:03;17.80;81.20
17495;DHT22;8864;51.970;4.614;2024-03-06T11:25:55;17.70;81.00
17495;DHT22;8864;51.970;4.614;2024-03-06T11:28:26;17.70;81.00
17495;DHT22;8864;51.970;4.614;2024-03-06T11:30:56;17.70;81.00
17495;DHT22;8864;51.970;4.614;2024-03-06T11:33:27;17.70;80.90
17495;DHT22;8864;51.970;4.614;2024-03-06T11:36:15;17.70;80.90
17495;DHT22;8864;51.970;4.614;2024-03-06T11:38:55;17.70;80.80
17495;DHT22;8864;51.970;4.614;2024-03-06T11:41:24;17.70;80.80
17495;DHT22;8864;51.970;4.614;2024-03-06T11:43:53;17.70;80.80
17495;DHT22;8864;51.970;4.614;2024-03-06T11:46:21;17.70;80.80
17495;DHT22;8864;51.970;4.614;2024-03-06T11:48:52;17.70;80.80
17495;DHT22;8864;51.970;4.614;2024-03-06T11:51:20;17.70;80.80
17495;DHT22;8864;51.970;4.614;2024-03-06T11:53:50;17.70;80.80
17495;DHT22;8864;51.970;4.614;2024-03-06T11:56:17;17.70;80.80
17495;DHT22;8864;51.970;4.614;2024-03-06T11:58:46;17.70;81.10
17495;DHT22;8864;51.970;4.614;2024-03-06T12:01:14;17.70;81.40
17495;DHT22;8864;51.970;4.614;2024-03-06T12:03:42;17.80;81.40
17495;DHT22;8864;51.970;4.614;2024-03-06T12:06:10;17.70;81.40
17495;DHT22;8864;51.970;4.614;2024-03-06T12:08:39;17.70;81.40
17495;DHT22;8864;51.970;4.614;2024-03-06T12:11:06;17.70;81.40
17495;DHT22;8864;51.970;4.614;2024-03-06T12:13:34;17.70;81.40
17495;DHT22;8864;51.970;4.614;2024-03-06T12:16:05;17.70;82.00
17495;DHT22;8864;51.970;4.614;2024-03-06T12:18:34;17.80;82.30
17495;DHT22;8864;51.970;4.614;2024-03-06T12:21:02;17.80;82.60
17495;DHT22;8864;51.970;4.614;2024-03-06T12:23:30;17.80;82.80
17495;DHT22;8864;51.970;4.614;2024-03-06T12:26:04;17.80;83.10
17495;DHT22;8864;51.970;4.614;2024-03-06T12:28:32;17.80;83.10
17495;DHT22;8864;51.970;4.614;2024-03-06T12:31:02;17.80;83.00
17495;DHT22;8864;51.970;4.614;2024-03-06T12:33:30;17.80;83.10
17495;DHT22;8864;51.970;4.614;2024-03-06T12:36:04;17.80;82.90
17495;DHT22;8864;51.970;4.614;2024-03-06T12:38:32;17.80;82.80
17495;DHT22;8864;51.970;4.614;2024-03-06T12:40:59;17.80;82.70
17495;DHT22;8864;51.970;4.614;2024-03-06T12:43:27;17.80;82.70
17495;DHT22;8864;51.970;4.614;2024-03-06T12:45:55;17.80;82.60
17495;DHT22;8864;51.970;4.614;2024-03-06T12:48:23;17.80;82.50
17495;DHT22;8864;51.970;4.614;2024-03-06T12:50:51;17.80;82.50
17495;DHT22;8864;51.970;4.614;2024-03-06T12:53:22;17.70;82.40
17495;DHT22;8864;51.970;4.614;2024-03-06T12:55:49;17.70;82.40
17495;DHT22;8864;51.970;4.614;2024-03-06T12:58:16;17.70;82.40
17495;DHT22;8864;51.970;4.614;2024-03-06T13:00:43;17.70;82.30
17495;DHT22;8864;51.970;4.614;2024-03-06T13:03:10;17.70;82.30
17495;DHT22;8864;51.970;4.614;2024-03-06T13:05:37;17.70;82.30
17495;DHT22;8864;51.970;4.614;2024-03-06T13:08:05;17.70;82.20
17495;DHT22;8864;51.970;4.614;2024-03-06T13:10:33;17.70;82.20
17495;DHT22;8864;51.970;4.614;2024-03-06T13:13:01;17.70;82.20
17495;DHT22;8864;51.970;4.614;2024-03-06T13:15:28;17.70;82.10
17495;DHT22;8864;51.970;4.614;2024-03-06T13:17:55;17.70;82.10
17495;DHT22;8864;51.970;4.614;2024-03-06T13:20:22;17.70;82.10
17495;DHT22;8864;51.970;4.614;2024-03-06T13:22:49;17.70;82.00
17495;DHT22;8864;51.970;4.614;2024-03-06T13:25:16;17.70;82.20
17495;DHT22;8864;51.970;4.614;2024-03-06T13:27:46;17.70;82.00
17495;DHT22;8864;51.970;4.614;2024-03-06T13:30:14;17.80;82.00
17495;DHT22;8864;51.970;4.614;2024-03-06T13:32:41;17.80;82.00
17495;DHT22;8864;51.970;4.614;2024-03-06T13:35:08;17.80;82.00
17495;DHT22;8864;51.970;4.614;2024-03-06T13:37:37;17.80;81.90
17495;DHT22;8864;51.970;4.614;2024-03-06T13:40:06;17.80;81.90
17495;DHT22;8864;51.970;4.614;2024-03-06T13:42:34;17.80;81.90
17495;DHT22;8864;51.970;4.614;2024-03-06T13:45:02;17.80;82.60
17495;DHT22;8864;51.970;4.614;2024-03-06T13:47:30;17.80;81.90
17495;DHT22;8864;51.970;4.614;2024-03-06T13:49:57;17.80;81.80
17495;DHT22;8864;51.970;4.614;2024-03-06T13:52:24;17.80;81.90
17495;DHT22;8864;51.970;4.614;2024-03-06T13:54:51;17.80;81.80
17495;DHT22;8864;51.970;4.614;2024-03-06T13:57:18;17.80;81.80
17495;DHT22;8864;51.970;4.614;2024-03-06T13:59:45;17.80;81.80
17495;DHT22;8864;51.970;4.614;2024-03-06T14:02:14;17.80;81.70
17495;DHT22;8864;51.970;4.614;2024-03-06T14:04:41;17.80;81.70
17495;DHT22;8864;51.970;4.614;2024-03-06T14:07:08;17.90;81.70
17495;DHT22;8864;51.970;4.614;2024-03-06T14:09:35;17.80;81.70
17495;DHT22;8864;51.970;4.614;2024-03-06T14:12:03;17.90;81.70
17495;DHT22;8864;51.970;4.614;2024-03-06T14:14:30;17.90;81.60
17495;DHT22;8864;51.970;4.614;2024-03-06T14:16:57;17.90;81.60
17495;DHT22;8864;51.970;4.614;2024-03-06T14:19:25;17.90;81.60
17495;DHT22;8864;51.970;4.614;2024-03-06T14:21:52;17.90;81.60
17495;DHT22;8864;51.970;4.614;2024-03-06T14:24:19;17.90;81.60
17495;DHT22;8864;51.970;4.614;2024-03-06T14:26:46;17.90;81.60
17495;DHT22;8864;51.970;4.614;2024-03-06T14:29:14;18.00;81.60
17495;DHT22;8864;51.970;4.614;2024-03-06T14:31:41;17.90;81.50
17495;DHT22;8864;51.970;4.614;2024-03-06T14:34:08;18.00;81.50
17495;DHT22;8864;51.970;4.614;2024-03-06T14:36:38;18.00;81.50
17495;DHT22;8864;51.970;4.614;2024-03-06T14:39:05;18.00;81.50
17495;DHT22;8864;51.970;4.614;2024-03-06T14:41:35;17.90;81.40
17495;DHT22;8864;51.970;4.614;2024-03-06T14:44:02;17.90;81.40
17495;DHT22;8864;51.970;4.614;2024-03-06T14:46:30;17.90;81.50
17495;DHT22;8864;51.970;4.614;2024-03-06T14:48:57;17.90;81.50
17495;DHT22;8864;51.970;4.614;2024-03-06T14:51:24;17.90;81.60
17495;DHT22;8864;51.970;4.614;2024-03-06T14:53:52;17.90;81.60
17495;DHT22;8864;51.970;4.614;2024-03-06T14:56:19;17.90;81.60
17495;DHT22;8864;51.970;4.614;2024-03-06T14:58:47;17.90;81.60
17495;DHT22;8864;51.970;4.614;2024-03-06T15:01:14;18.00;81.50
17495;DHT22;8864;51.970;4.614;2024-03-06T15:03:41;18.00;81.40
17495;DHT22;8864;51.970;4.614;2024-03-06T15:06:08;17.90;81.40
17495;DHT22;8864;51.970;4.614;2024-03-06T15:08:37;17.90;81.40
17495;DHT22;8864;51.970;4.614;2024-03-06T15:11:06;18.00;81.30
17495;DHT22;8864;51.970;4.614;2024-03-06T15:13:33;18.00;81.30
17495;DHT22;8864;51.970;4.614;2024-03-06T15:16:01;18.00;81.20
17495;DHT22;8864;51.970;4.614;2024-03-06T15:18:29;18.10;81.20
17495;DHT22;8864;51.970;4.614;2024-03-06T15:20:56;18.10;81.20
17495;DHT22;8864;51.970;4.614;2024-03-06T15:23:23;18.10;81.00
17495;DHT22;8864;51.970;4.614;2024-03-06T15:25:50;18.10;81.00
17495;DHT22;8864;51.970;4.614;2024-03-06T15:28:19;18.10;81.00
17495;DHT22;8864;51.970;4.614;2024-03-06T15:30:46;18.10;80.90
17495;DHT22;8864;51.970;4.614;2024-03-06T15:33:14;18.20;80.90
17495;DHT22;8864;51.970;4.614;2024-03-06T15:35:41;18.20;80.90
17495;DHT22;8864;51.970;4.614;2024-03-06T15:38:09;18.20;80.70
17495;DHT22;8864;51.970;4.614;2024-03-06T15:40:36;18.20;80.70
17495;DHT22;8864;51.970;4.614;2024-03-06T15:43:03;18.20;80.70
17495;DHT22;8864;51.970;4.614;2024-03-06T15:45:32;18.20;80.70
17495;DHT22;8864;51.970;4.614;2024-03-06T15:47:59;18.20;80.70
17495;DHT22;8864;51.970;4.614;2024-03-06T15:50:26;18.20;80.70
17495;DHT22;8864;51.970;4.614;2024-03-06T15:52:53;18.20;80.70
17495;DHT22;8864;51.970;4.614;2024-03-06T15:55:20;18.20;80.70
17495;DHT22;8864;51.970;4.614;2024-03-06T15:57:47;18.20;80.70
17495;DHT22;8864;51.970;4.614;2024-03-06T16:00:14;18.20;80.70
17495;DHT22;8864;51.970;4.614;2024-03-06T16:02:44;18.20;80.70
17495;DHT22;8864;51.970;4.614;2024-03-06T16:05:10;18.10;80.60
17495;DHT22;8864;51.970;4.614;2024-03-06T16:07:38;18.10;80.70
17495;DHT22;8864;51.970;4.614;2024-03-06T16:10:06;18.10;80.70
17495;DHT22;8864;51.970;4.614;2024-03-06T16:12:34;18.10;80.70
17495;DHT22;8864;51.970;4.614;2024-03-06T16:15:01;18.10;80.70
17495;DHT22;8864;51.970;4.614;2024-03-06T16:17:29;18.10;80.70
17495;DHT22;8864;51.970;4.614;2024-03-06T16:19:58;18.10;80.90
17495;DHT22;8864;51.970;4.614;2024-03-06T16:22:25;18.10;80.80
17495;DHT22;8864;51.970;4.614;2024-03-06T16:24:52;18.10;80.80
17495;DHT22;8864;51.970;4.614;2024-03-06T16:27:20;18.10;80.90
17495;DHT22;8864;51.970;4.614;2024-03-06T16:29:47;18.10;80.90
17495;DHT22;8864;51.970;4.614;2024-03-06T16:32:15;18.10;80.80
17495;DHT22;8864;51.970;4.614;2024-03-06T16:34:42;18.10;80.80
17495;DHT22;8864;51.970;4.614;2024-03-06T16:37:10;18.00;80.70
17495;DHT22;8864;51.970;4.614;2024-03-06T16:39:37;18.10;80.80
17495;DHT22;8864;51.970;4.614;2024-03-06T16:42:04;18.00;80.70
17495;DHT22;8864;51.970;4.614;2024-03-06T16:44:31;18.00;80.70
17495;DHT22;8864;51.970;4.614;2024-03-06T16:46:58;18.10;80.80